Time;durP1;ratioP1;P1;durP2;ratioP2;P2;SDS_P1;SDS_P2;PMS_P1;PMS_P2;Temp;Humidity;BMP_temperature;BMP_pressure;BME280_temperature;BME280_humidity;BME280_pressure;Samples;Min_cycle;Max_cycle;Signal;HPM_P1;HPM_P2
2021/06/09 00:01:25;;;;;;;8.13;5.25;;;;;;;15.20;83.16;99065.55;1769643;80;21027;-62
2021/06/09 00:03:52;;;;;;;6.37;4.30;;;;;;;15.20;83.09;99066.36;1792129;79;20995;-61
2021/06/09 00:06:19;;;;;;;5.90;4.22;;;;;;;15.19;83.17;99065.33;1798481;77;21000;-62
2021/06/09 00:08:46;;;;;;;5.55;4.28;;;;;;;15.11;83.01;99069.66;1743484;81;21553;-62
2021/06/09 00:11:13;;;;;;;6.97;4.30;;;;;;;15.09;82.83;99070.52;1787080;79;21064;-62
2021/06/09 00:13:40;;;;;;;7.97;5.28;;;;;;;15.10;82.62;99065.84;1766839;80;21078;-62
2021/06/09 00:16:15;;;;;;;7.03;4.72;;;;;;;15.09;82.48;99066.99;1800832;77;21643;-62
2021/06/09 00:18:41;;;;;;;6.05;4.40;;;;;;;15.07;82.39;99070.59;1809251;79;21066;-62
2021/06/09 00:21:08;;;;;;;6.15;4.20;;;;;;;15.03;82.26;99069.61;1813152;79;20995;-62
2021/06/09 00:23:35;;;;;;;6.42;4.50;;;;;;;14.99;82.09;99063.95;1814885;77;21503;-62
2021/06/09 00:26:04;;;;;;;24.40;15.65;;;;;;;14.90;82.21;99058.45;1777979;79;21598;-63
2021/06/09 00:28:31;;;;;;;8.75;5.22;;;;;;;14.86;82.01;99060.77;1790026;79;21038;-61
2021/06/09 00:30:57;;;;;;;17.67;9.90;;;;;;;14.79;81.83;99063.16;1751815;80;21541;-62
2021/06/09 00:33:25;;;;;;;92.72;39.30;;;;;;;14.73;81.92;99058.38;1767691;81;21100;-62
2021/06/09 00:35:56;;;;;;;83.42;40.23;;;;;;;14.71;82.14;99066.65;1808030;79;20970;-61
2021/06/09 00:38:22;;;;;;;78.35;39.75;;;;;;;14.71;82.09;99070.76;1792990;79;21002;-62
2021/06/09 00:40:49;;;;;;;70.85;37.80;;;;;;;14.66;82.33;99070.91;1789039;79;21646;-61
2021/06/09 00:43:18;;;;;;;62.70;37.03;;;;;;;14.60;82.40;99068.84;1796814;79;21552;-62
2021/06/09 00:45:55;;;;;;;38.83;22.42;;;;;;;14.56;82.32;99071.97;1801105;79;20966;-62
2021/06/09 00:48:25;;;;;;;10.63;8.20;;;;;;;14.53;82.25;99073.97;1787830;79;21518;-62
2021/06/09 00:50:49;;;;;;;22.55;12.75;;;;;;;14.46;82.21;99066.75;1787246;79;21060;-63
2021/06/09 00:53:33;;;;;;;22.25;14.65;;;;;;;14.41;82.23;99071.01;1791130;79;21618;-61
2021/06/09 00:56:06;;;;;;;23.83;14.30;;;;;;;14.38;82.19;99070.27;1795642;79;21056;-62
2021/06/09 00:58:32;;;;;;;18.67;12.75;;;;;;;14.33;82.46;99064.88;1805748;77;20997;-62
2021/06/09 01:01:00;;;;;;;;;;;;;;;14.25;82.66;99074.64;1807287;79;21068;-62
2021/06/09 01:03:27;;;;;;;20.32;12.55;;;;;;;14.19;82.61;99077.83;1815232;78;20121;-62
2021/06/09 01:05:54;;;;;;;15.70;11.63;;;;;;;14.12;82.54;99074.16;1793491;79;21045;-63
2021/06/09 01:08:20;;;;;;;10.60;6.97;;;;;;;14.05;82.54;99072.41;1789130;79;21339;-62
2021/06/09 01:10:50;;;;;;;;;;;;;;;13.97;82.86;99077.25;1806662;79;21052;-62
2021/06/09 01:13:19;;;;;;;9.55;5.35;;;;;;;13.90;83.08;99074.13;1792645;79;20538;-62
2021/06/09 01:15:45;;;;;;;6.62;5.00;;;;;;;13.79;83.44;99079.03;1787521;80;21053;-61
2021/06/09 01:18:11;;;;;;;5.25;4.72;;;;;;;13.75;83.72;99080.77;1785383;79;21045;-62
2021/06/09 01:20:38;;;;;;;6.20;5.37;;;;;;;13.71;83.82;99082.48;1787371;79;21029;-61
2021/06/09 01:23:04;;;;;;;;;;;;;;;13.68;83.81;99072.72;1765366;80;21038;-62
2021/06/09 01:25:31;;;;;;;9.03;5.10;;;;;;;13.66;83.98;99076.34;1781307;80;20387;-62
2021/06/09 01:27:58;;;;;;;7.42;5.55;;;;;;;13.63;84.44;99069.56;1774916;79;21023;-62
2021/06/09 01:30:24;;;;;;;13.98;8.30;;;;;;;13.68;84.68;99074.91;1786454;80;21524;-62
2021/06/09 01:32:51;;;;;;;12.45;9.65;;;;;;;13.75;84.72;99075.84;1789492;80;21003;-61
2021/06/09 01:35:18;;;;;;;10.80;8.15;;;;;;;13.78;84.39;99077.98;1777584;78;21007;-61
2021/06/09 01:37:45;;;;;;;6.33;5.72;;;;;;;13.73;84.23;99078.09;1797454;80;21404;-61
2021/06/09 01:40:14;;;;;;;;;;;;;;;13.66;84.17;99074.97;1790035;78;21501;-62
2021/06/09 01:42:41;;;;;;;7.20;4.72;;;;;;;13.61;84.20;99087.37;1782018;80;20108;-62
2021/06/09 01:45:09;;;;;;;8.23;4.72;;;;;;;13.50;84.26;99080.53;1784916;79;21100;-61
2021/06/09 01:47:35;;;;;;;4.92;4.42;;;;;;;13.44;84.21;99088.83;1810844;79;21021;-61
2021/06/09 01:50:04;;;;;;;;;;;;;;;13.39;84.31;99086.20;1758747;80;21516;-62
2021/06/09 01:55:22;;;;;;;5.87;4.90;;;;;;;13.36;84.73;99086.81;1795367;79;22898;-61
2021/06/09 01:57:51;;;;;;;7.05;5.28;;;;;;;13.29;84.90;99090.52;1759393;80;21116;-61
2021/06/09 02:00:26;;;;;;;5.70;5.03;;;;;;;13.30;84.98;99093.50;1764326;80;21070;-62
2021/06/09 02:02:58;;;;;;;5.80;4.35;;;;;;;13.34;84.92;99101.36;1769346;80;21114;-62
2021/06/09 02:05:22;;;;;;;5.35;4.85;;;;;;;13.37;84.98;99098.00;1779729;80;21066;-61
2021/06/09 02:07:48;;;;;;;5.67;4.95;;;;;;;13.44;85.11;99101.14;1768538;80;21600;-61
2021/06/09 02:10:18;;;;;;;6.72;4.95;;;;;;;13.49;85.20;99092.03;1770078;80;21014;-62
2021/06/09 02:12:48;;;;;;;6.10;5.50;;;;;;;13.46;85.26;99083.86;1757262;80;21033;-61
2021/06/09 02:15:15;;;;;;;7.10;5.30;;;;;;;13.57;85.37;99088.55;1756292;80;21057;-62
2021/06/09 02:17:56;;;;;;;5.87;4.75;;;;;;;13.64;85.31;99089.52;1777002;80;21042;-62
2021/06/09 02:20:19;;;;;;;7.97;4.40;;;;;;;13.66;85.14;99088.64;1753581;80;21512;-62
2021/06/09 02:22:45;;;;;;;5.70;4.40;;;;;;;13.63;84.90;99084.61;1697237;80;21054;-61
2021/06/09 02:25:12;;;;;;;7.33;4.28;;;;;;;13.61;84.92;99089.55;1722377;82;21029;-61
2021/06/09 02:27:39;;;;;;;6.72;4.47;;;;;;;13.60;84.93;99084.41;1689443;83;22532;-62
2021/06/09 02:30:08;;;;;;;7.20;4.72;;;;;;;13.62;85.06;99082.16;1701532;83;21073;-62
2021/06/09 02:32:36;;;;;;;5.90;4.70;;;;;;;13.66;85.03;99084.55;1683394;83;21056;-62
2021/06/09 02:35:04;;;;;;;7.15;4.62;;;;;;;13.67;85.35;99084.25;1710325;82;21029;-62
2021/06/09 02:37:30;;;;;;;6.40;4.47;;;;;;;13.72;85.23;99089.59;1666984;84;21063;-62
2021/06/09 02:39:57;;;;;;;6.53;4.40;;;;;;;13.77;85.04;99093.59;1673615;83;21011;-62
2021/06/09 02:42:23;;;;;;;5.65;4.50;;;;;;;13.81;85.02;99093.78;1685829;83;21027;-62
2021/06/09 02:44:50;;;;;;;5.42;4.92;;;;;;;13.82;84.96;99089.91;1682590;83;21491;-61
2021/06/09 02:47:16;;;;;;;;;;;;;;;13.83;84.96;99088.80;1697278;83;21069;-61
2021/06/09 02:49:42;;;;;;;4.58;4.15;;;;;;;13.84;85.04;99089.06;1698103;82;20137;-62
2021/06/09 02:52:27;;;;;;;;;;;;;;;13.82;85.13;99094.83;1721412;82;21074;-61
2021/06/09 02:55:01;;;;;;;6.03;5.42;;;;;;;13.82;85.17;99094.01;1739074;82;20393;-61
2021/06/09 02:57:47;;;;;;;5.83;4.95;;;;;;;13.79;85.55;99095.45;1718007;82;21094;-60
2021/06/09 03:00:19;;;;;;;7.00;5.07;;;;;;;13.85;85.80;99096.16;1728185;82;21016;-62
2021/06/09 03:03:14;;;;;;;8.65;6.37;;;;;;;13.93;85.90;99102.23;1696327;83;21169;-62
2021/06/09 03:05:59;;;;;;;5.95;5.35;;;;;;;14.03;86.27;99103.37;1714453;83;21062;-62
2021/06/09 03:08:33;;;;;;;6.20;4.97;;;;;;;14.27;87.03;99108.02;1721060;82;21589;-62
2021/06/09 03:11:08;;;;;;;7.10;6.30;;;;;;;14.54;87.06;99103.53;1732660;81;21026;-61
2021/06/09 03:14:01;;;;;;;7.60;6.30;;;;;;;14.79;86.97;99103.69;1724788;82;21477;-62
2021/06/09 03:16:34;;;;;;;8.00;6.42;;;;;;;15.08;86.97;99105.92;1712520;82;21070;-62
2021/06/09 03:19:08;;;;;;;6.35;5.75;;;;;;;15.43;86.09;99098.06;1742000;81;21118;-62
2021/06/09 03:21:52;;;;;;;8.00;6.00;;;;;;;15.76;85.10;99103.98;1735079;81;21023;-62
2021/06/09 03:24:35;;;;;;;7.30;6.30;;;;;;;16.06;83.69;99103.58;1704707;83;21046;-60
2021/06/09 03:27:07;;;;;;;7.10;6.40;;;;;;;16.18;82.60;99103.75;1715019;82;21561;-61
2021/06/09 03:29:38;;;;;;;6.95;6.08;;;;;;;16.41;81.83;99109.85;1719708;83;21078;-60
2021/06/09 03:32:43;;;;;;;6.55;5.83;;;;;;;16.68;81.03;99108.72;1719451;82;21082;-60
2021/06/09 03:35:32;;;;;;;6.92;6.28;;;;;;;16.87;79.13;99105.83;1703504;83;21070;-61
2021/06/09 03:37:58;;;;;;;7.20;6.50;;;;;;;17.06;79.07;99096.39;1696063;83;21038;-61
2021/06/09 03:40:36;;;;;;;7.72;5.83;;;;;;;17.49;77.61;99101.69;1711879;82;21071;-62
2021/06/09 03:43:08;;;;;;;9.15;6.25;;;;;;;17.70;76.25;99103.38;1720175;83;21062;-61
2021/06/09 03:45:43;;;;;;;7.25;6.08;;;;;;;17.79;75.22;99106.05;1721280;82;21008;-61
2021/06/09 03:48:10;;;;;;;7.95;6.33;;;;;;;17.80;75.30;99098.03;1702166;83;21133;-61
2021/06/09 03:50:37;;;;;;;7.85;5.67;;;;;;;17.84;75.33;99097.61;1726031;82;21009;-61
2021/06/09 03:53:04;;;;;;;7.42;5.40;;;;;;;18.02;74.98;99099.09;1681827;82;21612;-61
2021/06/09 03:55:34;;;;;;;5.85;5.25;;;;;;;18.23;74.58;99097.70;1715828;82;21030;-61
2021/06/09 03:58:00;;;;;;;6.30;5.15;;;;;;;18.34;73.44;99098.34;1717924;82;21049;-62
2021/06/09 04:00:26;;;;;;;;;;;;;;;18.51;73.16;99108.98;1729988;82;21607;-61
2021/06/09 04:02:53;;;;;;;6.75;5.35;;;;;;;18.67;72.37;99109.97;1737224;81;20110;-62
2021/06/09 04:05:20;;;;;;;5.15;4.65;;;;;;;18.61;72.07;99101.09;1695946;83;21102;-62
2021/06/09 04:07:47;;;;;;;6.92;5.33;;;;;;;18.67;71.18;99108.59;1680993;83;21078;-61
2021/06/09 04:10:14;;;;;;;6.25;4.90;;;;;;;18.80;70.94;99112.42;1697710;83;21573;-61
2021/06/09 04:12:41;;;;;;;6.47;5.10;;;;;;;18.91;71.02;99113.36;1718976;82;21076;-61
2021/06/09 04:15:12;;;;;;;6.87;5.37;;;;;;;18.99;70.56;99106.95;1685143;84;21067;-62
2021/06/09 04:17:39;;;;;;;5.58;4.95;;;;;;;19.01;69.91;99106.02;1713203;82;21113;-59
2021/06/09 04:20:07;;;;;;;6.83;4.72;;;;;;;19.15;70.89;99112.02;1723456;82;21563;-60
2021/06/09 04:22:35;;;;;;;5.55;4.80;;;;;;;19.40;68.85;99117.78;1674540;82;21058;-60
2021/06/09 04:25:03;;;;;;;9.55;5.40;;;;;;;19.44;68.71;99122.08;1701156;83;21063;-60
2021/06/09 04:27:34;;;;;;;4.40;4.00;;;;;;;19.29;69.05;99123.52;1685487;84;21086;-59
2021/06/09 04:30:02;;;;;;;6.33;5.60;;;;;;;19.30;69.56;99117.67;1686842;84;21150;-60
2021/06/09 04:32:50;;;;;;;6.00;5.10;;;;;;;19.34;69.45;99120.55;1679603;84;21212;-61
2021/06/09 04:35:16;;;;;;;6.08;5.05;;;;;;;19.35;69.08;99121.57;1689743;83;21099;-59
2021/06/09 04:37:43;;;;;;;5.35;4.85;;;;;;;19.39;69.45;99120.31;1700407;82;21051;-62
2021/06/09 04:40:19;;;;;;;6.25;4.67;;;;;;;19.40;69.14;99119.17;1713767;82;21055;-62
2021/06/09 04:42:47;;;;;;;6.33;5.12;;;;;;;19.47;69.20;99118.62;1687501;84;21612;-60
2021/06/09 04:45:14;;;;;;;5.97;5.37;;;;;;;19.55;69.54;99114.95;1719992;83;21050;-60
2021/06/09 04:47:41;;;;;;;8.85;4.97;;;;;;;19.57;68.37;99112.62;1684781;84;21077;-61
2021/06/09 04:50:08;;;;;;;6.20;5.55;;;;;;;19.60;69.08;99118.27;1684404;84;21112;-61
2021/06/09 04:52:35;;;;;;;5.72;5.05;;;;;;;19.78;69.20;99115.48;1701922;82;21093;-61
2021/06/09 04:55:02;;;;;;;6.35;5.50;;;;;;;19.87;68.72;99118.14;1692232;84;21026;-62
2021/06/09 04:57:28;;;;;;;6.03;4.75;;;;;;;19.94;68.39;99124.45;1708531;83;21061;-62
2021/06/09 04:59:54;;;;;;;8.48;5.12;;;;;;;20.10;68.73;99119.22;1706230;83;21091;-61
2021/06/09 05:02:21;;;;;;;6.92;5.28;;;;;;;20.33;67.44;99124.47;1702592;83;21536;-62
2021/06/09 05:04:47;;;;;;;9.78;5.33;;;;;;;20.53;67.45;99126.02;1713767;83;21082;-61
2021/06/09 05:07:14;;;;;;;6.37;5.40;;;;;;;20.56;66.49;99128.08;1693627;83;21125;-62
2021/06/09 05:09:40;;;;;;;5.40;4.72;;;;;;;20.56;65.77;99132.22;1723380;83;21560;-61
2021/06/09 05:12:15;;;;;;;5.90;5.30;;;;;;;20.57;66.74;99133.27;1718797;83;21059;-61
2021/06/09 05:14:51;;;;;;;7.42;4.60;;;;;;;20.65;66.42;99133.67;1721679;83;21630;-61
2021/06/09 05:17:20;;;;;;;4.95;4.45;;;;;;;20.79;67.05;99138.24;1708557;83;21688;-62
2021/06/09 05:19:48;;;;;;;6.67;5.17;;;;;;;20.95;65.76;99129.95;1724958;82;21543;-60
2021/06/09 05:22:25;;;;;;;9.13;5.85;;;;;;;20.98;64.83;99140.31;1712566;83;21434;-61
2021/06/09 05:24:53;;;;;;;8.10;5.80;;;;;;;20.92;64.80;99132.63;1695924;83;21581;-60
2021/06/09 05:27:21;;;;;;;9.88;6.22;;;;;;;21.08;65.28;99138.40;1685217;83;21138;-62
2021/06/09 05:29:48;;;;;;;6.83;6.10;;;;;;;21.19;64.57;99139.52;1738593;82;21533;-61
2021/06/09 05:32:14;;;;;;;7.75;6.25;;;;;;;21.20;64.26;99142.52;1696031;82;21133;-61
2021/06/09 05:34:41;;;;;;;7.10;6.00;;;;;;;21.27;64.34;99137.16;1741353;82;21052;-62
2021/06/09 05:37:11;;;;;;;5.85;5.25;;;;;;;21.42;64.52;99136.94;1698045;83;21070;-61
2021/06/09 05:39:39;;;;;;;6.40;5.80;;;;;;;21.48;64.83;99136.89;1706480;83;21086;-61
2021/06/09 05:42:08;;;;;;;8.88;6.35;;;;;;;21.50;63.78;99135.96;1742988;82;21046;-62
2021/06/09 05:44:35;;;;;;;8.48;6.83;;;;;;;21.49;64.31;99132.96;1702331;83;21018;-61
2021/06/09 05:47:03;;;;;;;9.70;6.65;;;;;;;21.43;64.02;99141.33;1709376;82;21651;-61
2021/06/09 05:49:29;;;;;;;7.03;6.33;;;;;;;21.43;63.48;99133.02;1736180;82;20991;-61
2021/06/09 05:51:56;;;;;;;8.20;7.35;;;;;;;21.61;62.87;99138.98;1684578;83;21054;-62
2021/06/09 05:54:23;;;;;;;7.58;6.78;;;;;;;21.75;62.65;99143.48;1698027;83;21094;-61
2021/06/09 05:56:50;;;;;;;6.92;5.75;;;;;;;21.89;62.88;99142.43;1679532;84;21098;-61
2021/06/09 05:59:16;;;;;;;11.55;5.53;;;;;;;21.87;62.11;99137.01;1669111;84;21044;-60
2021/06/09 06:01:43;;;;;;;9.15;6.85;;;;;;;21.90;62.34;99141.82;1679017;84;21019;-62
2021/06/09 06:04:10;;;;;;;6.80;6.03;;;;;;;21.92;62.54;99142.31;1685999;83;21954;-62
2021/06/09 06:06:36;;;;;;;6.90;5.70;;;;;;;21.94;62.41;99142.16;1745530;82;20956;-61
2021/06/09 06:09:05;;;;;;;6.20;5.60;;;;;;;21.93;62.09;99150.25;1701987;83;21529;-62
2021/06/09 06:11:31;;;;;;;5.08;4.58;;;;;;;21.95;62.50;99143.78;1714249;83;20998;-62
2021/06/09 06:13:58;;;;;;;4.87;4.35;;;;;;;22.06;61.24;99129.58;1700758;83;21042;-61
2021/06/09 06:16:25;;;;;;;7.62;4.55;;;;;;;22.27;61.42;99142.52;1662140;84;21037;-61
2021/06/09 06:18:52;;;;;;;5.60;5.00;;;;;;;22.37;60.24;99134.78;1704035;83;20987;-62
2021/06/09 06:21:19;;;;;;;5.97;5.00;;;;;;;22.35;60.23;99138.52;1696403;83;21054;-62
2021/06/09 06:23:46;;;;;;;5.25;4.30;;;;;;;22.51;58.95;99146.17;1721229;82;21098;-60
2021/06/09 06:26:16;;;;;;;6.00;4.78;;;;;;;22.59;59.73;99138.22;1703499;82;21123;-62
2021/06/09 06:28:42;;;;;;;5.30;3.75;;;;;;;22.65;59.49;99136.17;1707261;82;21051;-60
2021/06/09 06:31:14;;;;;;;4.25;3.47;;;;;;;22.79;57.82;99142.03;1719892;82;21584;-59
2021/06/09 06:33:41;;;;;;;6.80;3.60;;;;;;;22.87;57.88;99144.36;1699794;83;21138;-60
2021/06/09 06:36:09;;;;;;;5.95;3.60;;;;;;;22.93;58.56;99142.88;1703269;83;21046;-61
2021/06/09 06:38:38;;;;;;;4.78;3.15;;;;;;;22.99;56.29;99144.78;1701412;83;21734;-59
2021/06/09 06:41:08;;;;;;;6.22;3.83;;;;;;;23.00;57.11;99149.14;1687627;83;21109;-60
2021/06/09 06:43:36;;;;;;;3.95;2.85;;;;;;;23.00;58.58;99151.34;1691978;82;21165;-60
2021/06/09 06:46:06;;;;;;;4.00;3.33;;;;;;;23.16;57.44;99143.72;1686477;84;21078;-61
2021/06/09 06:48:33;;;;;;;5.20;3.60;;;;;;;23.30;56.55;99147.33;1695084;84;21088;-58
2021/06/09 06:51:00;;;;;;;6.12;3.50;;;;;;;23.28;56.30;99141.33;1726243;82;21027;-62
2021/06/09 06:53:27;;;;;;;4.30;3.10;;;;;;;23.26;56.44;99140.33;1734140;81;21066;-60
2021/06/09 06:55:59;;;;;;;3.95;3.42;;;;;;;23.29;56.92;99139.58;1732981;81;21011;-61
2021/06/09 06:58:31;;;;;;;6.05;3.02;;;;;;;23.41;59.14;99146.13;1726251;82;21031;-59
2021/06/09 07:00:59;;;;;;;3.08;2.77;;;;;;;23.63;57.23;99138.40;1746851;82;21054;-62
2021/06/09 07:03:26;;;;;;;4.05;2.92;;;;;;;23.63;55.02;99130.06;1747927;82;21053;-61
2021/06/09 07:05:54;;;;;;;4.28;2.90;;;;;;;23.71;54.16;99131.17;1682649;84;21043;-62
2021/06/09 07:08:20;;;;;;;4.35;2.62;;;;;;;23.72;54.69;99127.23;1680969;84;21110;-61
2021/06/09 07:10:46;;;;;;;4.58;2.67;;;;;;;23.92;55.29;99127.91;1713687;82;21069;-61
2021/06/09 07:13:14;;;;;;;3.40;2.90;;;;;;;24.11;55.45;99131.16;1729126;82;21027;-62
2021/06/09 07:15:43;;;;;;;3.45;3.10;;;;;;;24.08;52.99;99133.31;1706097;83;21022;-62
2021/06/09 07:18:09;;;;;;;3.83;2.70;;;;;;;24.19;53.73;99131.52;1705935;83;21637;-58
2021/06/09 07:20:36;;;;;;;3.25;2.58;;;;;;;24.24;53.94;99136.73;1724186;82;21074;-59
2021/06/09 07:23:03;;;;;;;3.95;2.80;;;;;;;23.97;53.60;99128.98;1715051;83;21085;-60
2021/06/09 07:25:30;;;;;;;3.65;2.87;;;;;;;23.97;53.60;99128.98;1698292;83;21038;-62
2021/06/09 07:28:06;;;;;;;4.95;2.55;;;;;;;24.10;54.47;99133.14;1665031;83;21641;-60
2021/06/09 07:30:35;;;;;;;2.67;2.35;;;;;;;24.13;52.47;99135.19;1705293;83;21637;-60
2021/06/09 07:33:04;;;;;;;3.47;2.47;;;;;;;24.13;52.47;99135.19;1713633;82;21114;-62
2021/06/09 07:35:31;;;;;;;4.90;2.45;;;;;;;24.23;53.20;99133.14;1740776;81;21059;-60
2021/06/09 07:38:20;;;;;;;3.27;2.83;;;;;;;24.59;52.04;99139.97;1744609;82;21025;-60
2021/06/09 07:40:52;;;;;;;4.25;2.95;;;;;;;24.59;52.04;99139.97;1706712;82;21527;-61
2021/06/09 07:43:24;;;;;;;3.00;2.45;;;;;;;24.62;52.21;99137.81;1738541;82;21048;-61
2021/06/09 07:45:51;;;;;;;7.42;3.00;;;;;;;24.69;52.65;99133.72;1684909;83;21646;-61
2021/06/09 07:48:19;;;;;;;4.35;2.60;;;;;;;24.63;50.88;99137.22;1702150;83;21009;-62
2021/06/09 07:50:59;;;;;;;6.53;2.58;;;;;;;24.63;51.77;99142.20;1704928;83;21465;-64
2021/06/09 07:53:26;;;;;;;4.25;2.47;;;;;;;24.45;52.93;99123.09;1705162;83;21074;-61
2021/06/09 07:55:52;;;;;;;4.62;2.70;;;;;;;24.53;52.22;99140.09;1707324;82;21913;-62
2021/06/09 07:58:23;;;;;;;3.55;2.72;;;;;;;24.59;52.04;99131.62;1745814;82;21083;-60
2021/06/09 08:00:55;;;;;;;4.33;2.70;;;;;;;24.61;52.82;99140.41;1730692;81;21534;-64
2021/06/09 08:03:28;;;;;;;11.18;3.58;;;;;;;24.64;53.09;99135.47;1743214;81;21416;-63
2021/06/09 08:05:58;;;;;;;3.33;2.60;;;;;;;24.66;51.49;99142.83;1715698;83;21022;-63
2021/06/09 08:08:25;;;;;;;4.28;2.42;;;;;;;24.71;51.55;99140.31;1715912;83;21210;-62
2021/06/09 08:10:51;;;;;;;3.20;2.60;;;;;;;24.67;50.49;99138.88;1704711;83;21490;-63
2021/06/09 08:13:18;;;;;;;5.40;2.85;;;;;;;24.71;52.42;99137.53;1705152;83;21091;-61
2021/06/09 08:15:46;;;;;;;3.62;2.47;;;;;;;24.85;49.95;99139.70;1721917;83;21573;-61
2021/06/09 08:18:12;;;;;;;4.33;2.80;;;;;;;24.89;50.82;99141.94;1700915;83;21124;-61
2021/06/09 08:21:12;;;;;;;3.75;2.70;;;;;;;24.99;50.49;99137.06;1705480;83;21510;-63
2021/06/09 08:23:42;;;;;;;4.95;2.37;;;;;;;25.25;48.69;99142.52;1681366;83;21054;-62
2021/06/09 08:26:10;;;;;;;5.25;2.47;;;;;;;25.22;48.39;99132.92;1689170;83;21097;-60
2021/06/09 08:28:39;;;;;;;3.33;2.20;;;;;;;25.21;47.00;99144.46;1690547;83;21716;-60
2021/06/09 08:31:07;;;;;;;2.90;2.20;;;;;;;25.06;48.31;99142.70;1700542;83;21145;-59
2021/06/09 08:33:35;;;;;;;2.80;1.90;;;;;;;25.10;48.04;99147.14;1705773;82;21059;-61
2021/06/09 08:36:04;;;;;;;2.58;1.90;;;;;;;25.12;45.67;99141.97;1685757;84;21074;-62
2021/06/09 08:38:31;;;;;;;3.25;2.20;;;;;;;25.21;48.61;99145.27;1707443;83;21102;-60
2021/06/09 08:40:58;;;;;;;2.42;2.12;;;;;;;25.45;47.64;99142.48;1711493;82;21066;-60
2021/06/09 08:43:25;;;;;;;2.35;1.80;;;;;;;25.49;46.88;99144.72;1699212;82;21062;-59
2021/06/09 08:45:53;;;;;;;1.90;1.50;;;;;;;25.64;46.54;99147.06;1718620;82;21542;-60
2021/06/09 08:48:20;;;;;;;6.72;3.10;;;;;;;25.72;46.31;99150.09;1713219;83;21208;-59
2021/06/09 08:50:48;;;;;;;3.90;2.33;;;;;;;25.75;46.07;99145.16;1684112;83;21155;-59
2021/06/09 08:53:22;;;;;;;5.05;2.70;;;;;;;25.89;46.85;99139.69;1683989;84;21116;-58
2021/06/09 08:55:49;;;;;;;4.00;2.42;;;;;;;26.13;47.06;99135.45;1684536;83;21541;-59
2021/06/09 08:58:16;;;;;;;2.85;2.00;;;;;;;26.35;47.70;99133.61;1727218;82;21049;-60
2021/06/09 09:00:43;;;;;;;5.40;2.37;;;;;;;26.34;44.74;99138.97;1714950;83;21078;-58
2021/06/09 09:03:11;;;;;;;2.80;2.10;;;;;;;26.32;45.82;99136.59;1688396;83;21583;-58
2021/06/09 09:05:38;;;;;;;2.62;2.22;;;;;;;26.33;44.61;99133.18;1712419;82;21181;-59
2021/06/09 09:08:04;;;;;;;3.52;2.05;;;;;;;26.17;44.49;99128.73;1722032;83;21108;-58
2021/06/09 09:10:32;;;;;;;4.28;2.27;;;;;;;26.10;45.00;99130.06;1742270;81;21075;-58
2021/06/09 09:12:58;;;;;;;3.27;2.10;;;;;;;26.03;46.12;99127.82;1668968;84;21527;-59
2021/06/09 09:15:25;;;;;;;5.20;2.40;;;;;;;26.14;46.26;99121.12;1694268;83;21104;-60
2021/06/09 09:17:54;;;;;;;3.58;2.02;;;;;;;26.25;44.88;99119.81;1689800;83;21059;-59
2021/06/09 09:20:26;;;;;;;4.30;1.90;;;;;;;26.18;44.90;99123.34;1709016;83;20995;-59
2021/06/09 09:22:57;;;;;;;3.35;2.20;;;;;;;26.13;46.27;99120.91;1739677;81;21055;-59
2021/06/09 09:25:22;;;;;;;2.42;1.92;;;;;;;26.12;45.01;99109.54;1729692;81;21034;-59
2021/06/09 09:27:55;;;;;;;2.98;2.17;;;;;;;26.21;42.54;99104.45;1721691;83;21121;-59
2021/06/09 09:30:23;;;;;;;4.30;1.92;;;;;;;26.25;43.85;99111.45;1740270;81;21109;-59
2021/06/09 09:33:07;;;;;;;2.72;2.00;;;;;;;26.27;44.65;99107.66;1719332;82;21061;-60
2021/06/09 09:35:37;;;;;;;3.10;1.82;;;;;;;26.27;42.54;99099.88;1694501;82;21026;-59
2021/06/09 09:38:18;;;;;;;3.83;1.80;;;;;;;26.17;43.45;99104.19;1684846;82;21062;-59
2021/06/09 09:41:11;;;;;;;4.80;2.05;;;;;;;26.07;42.61;99102.95;1689785;83;21062;-59
2021/06/09 09:43:56;;;;;;;2.00;1.60;;;;;;;26.08;43.32;99095.36;1696491;83;21636;-61
2021/06/09 09:46:33;;;;;;;3.17;2.15;;;;;;;26.08;43.78;99096.75;1721596;82;21078;-60
2021/06/09 09:49:07;;;;;;;2.37;1.80;;;;;;;26.21;44.71;99086.32;1686849;84;21101;-61
2021/06/09 09:51:44;;;;;;;2.80;1.82;;;;;;;26.30;44.28;99084.55;1682462;84;21059;-60
2021/06/09 09:54:11;;;;;;;4.80;1.90;;;;;;;26.36;41.68;99081.58;1724294;81;21489;-60
2021/06/09 09:56:38;;;;;;;3.02;1.77;;;;;;;26.26;43.88;99084.32;1725527;82;21082;-60
2021/06/09 09:59:10;;;;;;;4.75;2.00;;;;;;;26.25;43.19;99080.76;1715295;82;21038;-60
2021/06/09 10:01:39;;;;;;;5.33;2.20;;;;;;;26.26;42.63;99080.14;1691492;83;21046;-60
2021/06/09 10:04:07;;;;;;;2.75;2.10;;;;;;;26.17;42.45;99072.95;1702737;82;21035;-62
2021/06/09 10:06:40;;;;;;;3.30;1.80;;;;;;;26.17;43.73;99065.14;1690350;83;21070;-59
2021/06/09 10:09:14;;;;;;;4.50;2.00;;;;;;;26.30;43.69;99062.82;1736631;82;21003;-60
2021/06/09 10:11:52;;;;;;;5.30;1.87;;;;;;;26.39;42.78;99061.28;1694773;83;21677;-63
2021/06/09 10:14:26;;;;;;;3.58;2.22;;;;;;;26.61;44.02;99057.94;1683053;83;21081;-63
2021/06/09 10:17:05;;;;;;;2.92;1.90;;;;;;;26.75;44.20;99064.95;1736398;82;21123;-62
2021/06/09 10:19:41;;;;;;;3.47;1.98;;;;;;;26.77;40.37;99057.59;1737228;81;21038;-63
2021/06/09 10:22:15;;;;;;;2.90;2.10;;;;;;;26.78;41.71;99053.61;1702496;83;21439;-62
2021/06/09 10:24:48;;;;;;;3.50;1.62;;;;;;;26.85;40.55;99050.27;1730165;82;21047;-63
2021/06/09 10:27:16;;;;;;;2.92;2.00;;;;;;;26.82;40.17;99055.81;1721695;82;21116;-63
2021/06/09 10:29:43;;;;;;;3.42;1.80;;;;;;;26.80;40.12;99051.20;1721403;83;21055;-63
2021/06/09 10:32:12;;;;;;;4.62;2.30;;;;;;;26.73;39.82;99047.22;1702805;83;21104;-61
2021/06/09 10:34:42;;;;;;;3.42;2.10;;;;;;;26.72;40.50;99042.81;1717232;82;20993;-62
2021/06/09 10:37:10;;;;;;;3.25;2.12;;;;;;;26.84;42.84;99052.85;1721689;83;21534;-62
2021/06/09 10:39:39;;;;;;;2.55;1.60;;;;;;;26.87;41.29;99045.66;1713427;83;21567;-64
2021/06/09 10:42:10;;;;;;;2.80;1.80;;;;;;;26.98;43.31;99043.09;1711628;83;21072;-64
2021/06/09 10:44:41;;;;;;;3.22;1.70;;;;;;;27.11;39.50;99044.29;1732600;82;21026;-65
2021/06/09 10:47:12;;;;;;;2.45;1.92;;;;;;;27.16;42.40;99030.53;1719758;81;21606;-64
2021/06/09 10:49:41;;;;;;;2.77;2.10;;;;;;;27.39;39.09;99023.92;1706466;82;21037;-63
2021/06/09 10:52:07;;;;;;;2.75;1.90;;;;;;;27.36;40.38;99028.91;1715438;82;21138;-63
2021/06/09 10:54:34;;;;;;;3.35;1.80;;;;;;;27.18;40.21;99031.72;1721615;83;21050;-64
2021/06/09 10:57:01;;;;;;;4.28;1.80;;;;;;;26.98;40.18;99029.72;1721402;83;21565;-62
2021/06/09 10:59:31;;;;;;;3.02;1.90;;;;;;;26.77;40.68;99024.89;1707028;83;21058;-64
2021/06/09 11:02:01;;;;;;;3.92;2.40;;;;;;;26.71;41.72;99020.89;1705377;83;21208;-64
2021/06/09 11:04:33;;;;;;;2.67;2.00;;;;;;;26.79;39.89;99027.27;1723753;81;20983;-64
2021/06/09 11:07:00;;;;;;;3.00;2.05;;;;;;;26.93;40.19;99024.52;1706207;83;21595;-64
2021/06/09 11:09:29;;;;;;;6.45;2.62;;;;;;;27.09;40.35;99022.15;1712142;83;21022;-63
2021/06/09 11:12:17;;;;;;;3.87;2.27;;;;;;;27.02;41.05;99022.14;1711994;82;21050;-62
2021/06/09 11:15:06;;;;;;;22.82;3.85;;;;;;;26.95;41.12;99017.36;1737998;81;21071;-64
2021/06/09 11:17:45;;;;;;;16.57;3.05;;;;;;;26.82;42.17;99018.12;1742674;81;21569;-61
2021/06/09 11:20:22;;;;;;;5.00;2.42;;;;;;;27.05;43.45;99008.78;1688268;83;20992;-62
2021/06/09 11:22:56;;;;;;;3.37;2.30;;;;;;;27.36;41.18;99001.56;1703369;83;21058;-64
2021/06/09 11:25:43;;;;;;;2.70;2.17;;;;;;;27.41;38.01;99000.58;1710163;83;21022;-62
2021/06/09 11:28:14;;;;;;;3.67;2.30;;;;;;;27.36;40.66;98998.77;1711463;83;21118;-64
2021/06/09 11:30:45;;;;;;;4.33;2.47;;;;;;;27.50;40.16;98995.98;1709711;83;21016;-63
2021/06/09 11:33:43;;;;;;;4.35;2.58;;;;;;;27.49;39.48;98992.39;1724295;83;21549;-64
2021/06/09 11:36:21;;;;;;;4.20;2.85;;;;;;;27.36;40.04;98987.59;1718971;83;21067;-65
2021/06/09 11:38:52;;;;;;;3.08;2.40;;;;;;;27.00;40.21;98990.41;1716844;83;21034;-62
2021/06/09 11:41:24;;;;;;;3.65;2.35;;;;;;;26.59;41.39;98988.56;1707719;82;21078;-64
2021/06/09 11:43:58;;;;;;;3.90;2.30;;;;;;;26.23;42.03;98979.31;1705712;83;21141;-64
2021/06/09 11:46:31;;;;;;;2.72;2.10;;;;;;;26.00;43.37;98983.00;1706918;83;21608;-63
2021/06/09 11:49:06;;;;;;;3.58;2.10;;;;;;;25.84;44.03;98978.92;1706485;84;21098;-62
2021/06/09 11:52:00;;;;;;;3.83;2.50;;;;;;;25.67;46.17;98979.05;1691669;84;21140;-65